createdAt,value
2018-08-28T00:01:37.556Z,16.40
2018-08-28T00:04:06.090Z,16.20
2018-08-28T00:06:34.620Z,16.10
2018-08-28T00:09:03.186Z,16.10
2018-08-28T00:11:31.683Z,16.10
2018-08-28T00:14:00.162Z,16.10
2018-08-28T00:16:28.643Z,16.10
2018-08-28T00:18:57.128Z,16.20
2018-08-28T00:21:25.615Z,16.20
2018-08-28T00:23:54.087Z,16.20
2018-08-28T00:26:22.575Z,16.10
2018-08-28T00:28:51.099Z,16.10
2018-08-28T00:31:19.622Z,16.00
2018-08-28T00:33:48.139Z,15.90
2018-08-28T00:36:16.667Z,15.80
2018-08-28T00:38:45.185Z,15.80
2018-08-28T00:41:13.767Z,15.80
2018-08-28T00:43:42.267Z,15.70
2018-08-28T00:46:10.728Z,15.70
2018-08-28T00:48:39.237Z,15.60
2018-08-28T00:51:07.722Z,15.60
2018-08-28T00:53:36.196Z,15.50
2018-08-28T00:56:04.753Z,15.60
2018-08-28T00:58:33.246Z,15.60
2018-08-28T01:01:01.710Z,15.60
2018-08-28T01:03:30.245Z,15.50
2018-08-28T01:05:58.732Z,15.50
2018-08-28T01:08:27.233Z,15.50
2018-08-28T01:10:55.741Z,15.40
2018-08-28T01:13:24.214Z,15.30
2018-08-28T01:15:52.704Z,15.30
2018-08-28T01:18:21.199Z,15.20
2018-08-28T01:20:49.663Z,15.20
2018-08-28T01:23:18.160Z,15.10
2018-08-28T01:25:46.640Z,15.10
2018-08-28T01:28:15.124Z,15.10
2018-08-28T01:30:43.610Z,15.10
2018-08-28T01:33:12.094Z,15.10
2018-08-28T01:35:40.574Z,15.10
2018-08-28T01:38:09.080Z,15.20
2018-08-28T01:40:37.564Z,15.10
2018-08-28T01:43:11.330Z,15.10
2018-08-28T01:45:39.838Z,15.00
2018-08-28T01:48:08.325Z,15.00
2018-08-28T01:50:36.866Z,14.90
2018-08-28T01:53:05.789Z,14.80
2018-08-28T01:55:34.274Z,14.80
2018-08-28T01:58:02.742Z,14.80
2018-08-28T02:00:31.225Z,14.80
2018-08-28T02:02:59.688Z,14.80
2018-08-28T02:05:28.229Z,14.80
2018-08-28T02:07:56.711Z,14.80
2018-08-28T02:10:25.201Z,14.70
2018-08-28T02:12:53.667Z,14.70
2018-08-28T02:15:22.168Z,14.60
2018-08-28T02:17:50.641Z,14.60
2018-08-28T02:20:19.146Z,14.50
2018-08-28T02:22:47.624Z,14.50
2018-08-28T02:25:16.146Z,14.50
2018-08-28T02:27:44.614Z,14.50
2018-08-28T02:30:13.085Z,14.50
2018-08-28T02:32:41.620Z,14.50
2018-08-28T02:35:10.094Z,14.60
2018-08-28T02:37:38.564Z,14.60
2018-08-28T02:40:07.084Z,14.60
2018-08-28T02:42:35.548Z,14.60
2018-08-28T02:45:04.092Z,14.60
2018-08-28T02:47:32.565Z,14.50
2018-08-28T02:50:01.038Z,14.50
2018-08-28T02:52:29.503Z,14.50
2018-08-28T02:54:57.989Z,14.40
2018-08-28T02:57:26.462Z,14.40
2018-08-28T02:59:54.958Z,14.30
2018-08-28T03:02:23.472Z,14.30
2018-08-28T03:04:51.930Z,14.30
2018-08-28T03:07:20.465Z,14.40
2018-08-28T03:09:48.917Z,14.40
2018-08-28T03:12:17.397Z,14.40
2018-08-28T03:14:45.940Z,14.30
2018-08-28T03:17:14.456Z,14.20
2018-08-28T03:19:42.940Z,14.20
2018-08-28T03:22:11.456Z,14.30
2018-08-28T03:24:39.954Z,14.30
2018-08-28T03:27:08.436Z,14.20
2018-08-28T03:29:36.931Z,14.20
2018-08-28T03:32:05.482Z,14.10
2018-08-28T03:34:34.014Z,14.10
2018-08-28T03:37:02.483Z,14.10
2018-08-28T03:39:30.943Z,14.00
2018-08-28T03:41:59.471Z,14.00
2018-08-28T03:44:27.992Z,14.00
2018-08-28T03:46:56.463Z,14.00
2018-08-28T03:49:24.962Z,14.00
2018-08-28T03:51:53.441Z,14.00
2018-08-28T03:54:21.979Z,14.00
2018-08-28T03:56:50.467Z,14.00
2018-08-28T03:59:18.943Z,14.10
2018-08-28T04:01:47.483Z,14.10
2018-08-28T04:04:16.111Z,14.00
2018-08-28T04:06:44.607Z,14.00
2018-08-28T04:09:13.083Z,13.90
2018-08-28T04:11:41.552Z,13.80
2018-08-28T04:14:10.014Z,13.80
2018-08-28T04:16:38.572Z,13.80
2018-08-28T04:19:07.116Z,13.80
2018-08-28T04:21:35.574Z,13.80
2018-08-28T04:24:04.084Z,13.80
2018-08-28T04:26:32.579Z,13.90
2018-08-28T04:29:01.079Z,13.90
2018-08-28T04:31:29.567Z,13.80
2018-08-28T04:33:58.051Z,13.80
2018-08-28T04:36:26.561Z,13.80
2018-08-28T04:38:55.044Z,13.80
2018-08-28T04:41:23.516Z,13.80
2018-08-28T04:43:51.983Z,13.80
2018-08-28T04:46:20.479Z,13.80
2018-08-28T04:48:48.969Z,13.70
2018-08-28T04:51:17.481Z,13.70
2018-08-28T04:53:45.944Z,13.70
2018-08-28T04:56:14.412Z,13.70
2018-08-28T04:58:42.890Z,13.70
2018-08-28T05:01:11.400Z,13.70
2018-08-28T05:03:39.986Z,13.70
2018-08-28T05:06:08.493Z,13.70
2018-08-28T05:08:37.003Z,13.80
2018-08-28T05:11:05.500Z,13.80
2018-08-28T05:13:33.974Z,13.70
2018-08-28T05:16:02.582Z,13.70
2018-08-28T05:18:31.058Z,13.80
2018-08-28T05:20:59.526Z,13.90
2018-08-28T05:23:28.000Z,14.10
2018-08-28T05:25:56.456Z,14.10
2018-08-28T05:28:25.015Z,14.00
2018-08-28T05:33:17.828Z,14.00
2018-08-28T05:35:46.294Z,14.00
2018-08-28T05:38:14.776Z,14.00
2018-08-28T05:40:43.288Z,14.00
2018-08-28T05:43:11.786Z,14.00
2018-08-28T05:45:40.245Z,14.00
2018-08-28T05:48:09.132Z,14.10
2018-08-28T05:50:37.625Z,14.10
2018-08-28T05:53:06.100Z,14.10
2018-08-28T05:55:34.558Z,14.10
2018-08-28T05:58:03.104Z,14.10
2018-08-28T06:00:31.599Z,14.10
2018-08-28T06:03:00.137Z,14.20
2018-08-28T06:05:28.599Z,14.30
2018-08-28T06:07:57.074Z,14.50
2018-08-28T06:10:25.577Z,14.80
2018-08-28T06:12:54.053Z,15.00
2018-08-28T06:15:22.595Z,15.30
2018-08-28T06:17:51.161Z,15.60
2018-08-28T06:20:19.669Z,15.80
2018-08-28T06:22:48.165Z,16.00
2018-08-28T06:25:16.669Z,16.10
2018-08-28T06:27:45.156Z,16.30
2018-08-28T06:30:13.650Z,16.50
2018-08-28T06:32:42.121Z,16.70
2018-08-28T06:35:10.658Z,16.90
2018-08-28T06:37:39.135Z,17.00
2018-08-28T06:40:07.676Z,17.20
2018-08-28T06:42:36.384Z,17.40
2018-08-28T06:45:05.029Z,17.50
2018-08-28T06:47:33.514Z,17.50
2018-08-28T06:50:02.052Z,17.60
2018-08-28T06:52:30.562Z,17.50
2018-08-28T06:54:59.046Z,17.60
2018-08-28T06:57:27.527Z,17.80
2018-08-28T06:59:56.320Z,18.00
2018-08-28T07:02:24.818Z,18.20
2018-08-28T07:04:53.332Z,18.20
2018-08-28T07:07:21.795Z,18.30
2018-08-28T07:09:50.344Z,18.30
2018-08-28T07:12:18.838Z,18.50
2018-08-28T07:14:47.412Z,18.60
2018-08-28T07:17:15.924Z,18.80
2018-08-28T07:19:44.414Z,19.00
2018-08-28T07:22:12.898Z,19.10
2018-08-28T07:24:41.374Z,19.20
2018-08-28T07:27:09.864Z,19.30
2018-08-28T07:29:38.358Z,19.40
2018-08-28T07:32:06.967Z,19.50
2018-08-28T07:34:35.476Z,19.70
2018-08-28T07:37:03.988Z,19.80
2018-08-28T07:39:32.543Z,19.90
2018-08-28T07:42:01.023Z,19.90
2018-08-28T07:44:29.573Z,20.00
2018-08-28T07:46:58.077Z,20.20
2018-08-28T07:49:26.632Z,20.30
2018-08-28T07:51:55.108Z,20.30
2018-08-28T07:54:23.600Z,20.50
2018-08-28T07:56:52.110Z,20.60
2018-08-28T07:59:20.572Z,20.80
2018-08-28T08:01:49.070Z,20.80
2018-08-28T08:04:17.579Z,20.70
2018-08-28T08:06:46.068Z,20.80
2018-08-28T08:09:14.595Z,20.90
2018-08-28T08:11:43.078Z,21.10
2018-08-28T08:14:11.582Z,21.20
2018-08-28T08:16:40.107Z,21.20
2018-08-28T08:19:08.620Z,21.30
2018-08-28T08:21:37.119Z,21.50
2018-08-28T08:24:05.652Z,21.60
2018-08-28T08:26:34.158Z,21.70
2018-08-28T08:29:02.636Z,21.80
2018-08-28T08:31:31.127Z,22.00
2018-08-28T08:33:59.675Z,22.30
2018-08-28T08:36:28.156Z,22.40
2018-08-28T08:38:56.652Z,22.70
2018-08-28T08:41:25.145Z,23.00
2018-08-28T08:43:53.629Z,23.20
2018-08-28T08:46:22.148Z,23.20
2018-08-28T08:48:50.676Z,23.20
2018-08-28T08:51:19.161Z,23.30
2018-08-28T08:53:48.112Z,23.30
2018-08-28T08:56:16.643Z,23.40
2018-08-28T08:58:45.132Z,23.30
2018-08-28T09:01:13.647Z,23.30
2018-08-28T09:03:42.128Z,23.40
2018-08-28T09:06:10.772Z,23.50
2018-08-28T09:08:39.101Z,23.40
2018-08-28T09:11:07.744Z,23.30
2018-08-28T09:13:36.245Z,23.30
2018-08-28T09:16:04.791Z,23.30
2018-08-28T09:18:33.315Z,23.30
2018-08-28T09:21:01.822Z,23.40
2018-08-28T09:23:30.283Z,23.50
2018-08-28T09:25:58.767Z,23.70
2018-08-28T09:28:27.245Z,23.90
2018-08-28T09:30:55.733Z,24.00
2018-08-28T09:33:24.198Z,23.90
2018-08-28T09:35:52.715Z,23.90
2018-08-28T09:38:21.208Z,24.00
2018-08-28T09:40:49.704Z,24.10
2018-08-28T09:43:18.196Z,24.20
2018-08-28T09:45:46.673Z,24.10
2018-08-28T09:48:15.191Z,23.90
2018-08-28T09:50:43.792Z,23.80
2018-08-28T09:53:12.172Z,23.90
2018-08-28T09:55:40.683Z,23.90
2018-08-28T09:58:09.208Z,23.90
2018-08-28T10:00:43.105Z,23.80
2018-08-28T10:03:11.628Z,23.80
2018-08-28T10:05:40.115Z,23.90
2018-08-28T10:08:08.626Z,24.20
2018-08-28T10:10:37.130Z,24.20
2018-08-28T10:13:05.704Z,24.30
2018-08-28T10:15:34.177Z,24.40
2018-08-28T10:18:02.699Z,24.40
2018-08-28T10:20:31.159Z,24.50
2018-08-28T10:22:59.707Z,24.40
2018-08-28T10:25:28.123Z,24.40
2018-08-28T10:27:56.603Z,24.50
2018-08-28T10:30:25.162Z,24.40
2018-08-28T10:32:53.605Z,24.50
2018-08-28T10:35:22.141Z,24.70
2018-08-28T10:37:50.664Z,24.70
2018-08-28T10:40:19.115Z,24.70
2018-08-28T10:42:47.597Z,24.80
2018-08-28T10:45:16.122Z,24.90
2018-08-28T10:47:44.601Z,24.90
2018-08-28T10:50:13.099Z,25.00
2018-08-28T10:52:41.586Z,25.00
2018-08-28T10:55:10.177Z,25.10
2018-08-28T10:57:38.686Z,25.00
2018-08-28T11:00:07.323Z,24.80
2018-08-28T11:02:36.045Z,24.80
2018-08-28T11:05:04.633Z,24.90
2018-08-28T11:07:33.137Z,25.10
2018-08-28T11:10:01.652Z,25.10
2018-08-28T11:12:30.164Z,25.30
2018-08-28T11:14:58.640Z,25.40
2018-08-28T11:17:27.125Z,25.40
2018-08-28T11:19:56.182Z,25.40
2018-08-28T11:22:25.005Z,25.20
2018-08-28T11:24:53.497Z,25.40
2018-08-28T11:27:22.023Z,25.50
2018-08-28T11:29:50.506Z,25.60
2018-08-28T11:32:19.008Z,25.70
2018-08-28T11:34:47.521Z,25.80
2018-08-28T11:37:16.002Z,25.80
2018-08-28T11:39:44.482Z,25.80
2018-08-28T11:42:12.980Z,26.00
2018-08-28T11:44:41.484Z,26.20
2018-08-28T11:47:10.013Z,26.20
2018-08-28T11:49:38.525Z,26.20
2018-08-28T11:52:07.026Z,26.20
2018-08-28T11:54:35.528Z,26.20
2018-08-28T11:57:04.050Z,26.20
2018-08-28T11:59:32.539Z,26.10
2018-08-28T12:02:01.075Z,26.00
2018-08-28T12:04:29.583Z,26.20
2018-08-28T12:06:58.086Z,26.40
2018-08-28T12:09:26.558Z,26.60
2018-08-28T12:11:55.038Z,26.70
2018-08-28T12:14:23.523Z,26.70
2018-08-28T12:16:52.133Z,26.80
2018-08-28T12:19:20.617Z,27.00
2018-08-28T12:21:49.111Z,27.00
2018-08-28T12:24:17.635Z,27.10
2018-08-28T12:26:46.173Z,27.30
2018-08-28T12:29:14.648Z,27.40
2018-08-28T12:31:43.143Z,27.50
2018-08-28T12:34:11.598Z,27.50
2018-08-28T12:36:40.128Z,27.50
2018-08-28T12:39:08.616Z,27.30
2018-08-28T12:41:37.104Z,27.50
2018-08-28T12:44:05.731Z,27.60
2018-08-28T12:46:34.158Z,27.50
2018-08-28T12:49:02.648Z,27.70
2018-08-28T12:51:31.283Z,27.80
2018-08-28T12:53:59.663Z,27.80
2018-08-28T12:56:28.173Z,27.80
2018-08-28T12:58:56.652Z,27.80
2018-08-28T13:01:25.147Z,27.50
2018-08-28T13:03:57.018Z,27.60
2018-08-28T13:06:26.049Z,27.50
2018-08-28T13:08:54.831Z,27.40
2018-08-28T13:11:23.428Z,27.40
2018-08-28T13:13:51.953Z,27.60
2018-08-28T13:16:20.447Z,27.60
2018-08-28T13:18:48.932Z,27.70
2018-08-28T13:21:17.406Z,27.90
2018-08-28T13:23:46.067Z,28.00
2018-08-28T13:26:14.553Z,28.10
2018-08-28T13:28:43.065Z,28.20
2018-08-28T13:31:11.570Z,28.30
2018-08-28T13:33:40.077Z,28.30
2018-08-28T13:36:08.761Z,28.40
2018-08-28T13:38:37.296Z,28.50
2018-08-28T13:41:05.832Z,28.50
2018-08-28T13:43:34.321Z,28.60
2018-08-28T13:46:02.869Z,28.60
2018-08-28T13:48:31.396Z,28.60
2018-08-28T13:50:59.912Z,28.70
2018-08-28T13:53:28.407Z,28.70
2018-08-28T13:55:56.947Z,28.70
2018-08-28T13:58:25.467Z,28.70
2018-08-28T14:00:53.958Z,28.70
2018-08-28T14:03:22.455Z,28.70
2018-08-28T14:05:50.965Z,28.70
2018-08-28T14:08:19.473Z,28.60
2018-08-28T14:10:47.969Z,28.60
2018-08-28T14:13:16.540Z,28.60
2018-08-28T14:15:44.979Z,28.60
2018-08-28T14:18:13.561Z,28.80
2018-08-28T14:20:42.054Z,28.90
2018-08-28T14:23:10.555Z,28.90
2018-08-28T14:25:39.081Z,28.90
2018-08-28T14:28:07.593Z,29.00
2018-08-28T14:30:36.081Z,29.10
2018-08-28T14:33:04.578Z,29.20
2018-08-28T14:35:33.177Z,29.30
2018-08-28T14:38:01.580Z,29.20
2018-08-28T14:40:30.089Z,29.20
2018-08-28T14:42:58.609Z,29.40
2018-08-28T14:45:27.085Z,29.50
2018-08-28T14:47:55.632Z,29.50
2018-08-28T14:50:24.286Z,29.50
2018-08-28T14:52:52.638Z,29.80
2018-08-28T14:55:21.144Z,30.00
2018-08-28T14:57:49.731Z,29.90
2018-08-28T15:00:18.242Z,30.00
2018-08-28T15:02:46.723Z,30.00
2018-08-28T15:05:15.208Z,30.10
2018-08-28T15:07:43.693Z,30.30
2018-08-28T15:10:12.212Z,30.60
2018-08-28T15:12:40.722Z,30.70
2018-08-28T15:15:09.252Z,30.60
2018-08-28T15:17:37.761Z,30.50
2018-08-28T15:20:06.288Z,30.50
2018-08-28T15:22:34.800Z,30.50
2018-08-28T15:25:03.290Z,30.40
2018-08-28T15:27:31.807Z,30.20
2018-08-28T15:30:00.279Z,29.90
2018-08-28T15:32:28.760Z,29.60
2018-08-28T15:34:57.272Z,29.10
2018-08-28T15:37:25.854Z,28.60
2018-08-28T15:39:54.337Z,28.20
2018-08-28T15:42:22.839Z,27.90
2018-08-28T15:44:51.357Z,27.60
2018-08-28T15:47:19.858Z,27.30
2018-08-28T15:49:48.367Z,27.20
2018-08-28T15:52:16.885Z,27.00
2018-08-28T15:54:45.398Z,26.90
2018-08-28T15:57:13.954Z,26.90
2018-08-28T15:59:42.457Z,26.80
2018-08-28T16:02:11.077Z,26.70
2018-08-28T16:04:39.594Z,26.80
2018-08-28T16:07:08.121Z,26.70
2018-08-28T16:09:36.634Z,26.70
2018-08-28T16:12:05.203Z,26.70
2018-08-28T16:14:33.723Z,26.70
2018-08-28T16:17:02.275Z,26.60
2018-08-28T16:19:30.805Z,26.40
2018-08-28T16:22:00.793Z,26.20
2018-08-28T16:24:29.307Z,26.10
2018-08-28T16:26:57.824Z,25.90
2018-08-28T16:29:26.333Z,25.70
2018-08-28T16:31:54.844Z,25.70
2018-08-28T16:34:23.341Z,25.70
2018-08-28T16:36:51.917Z,25.70
2018-08-28T16:39:20.499Z,25.60
2018-08-28T16:41:49.018Z,25.50
2018-08-28T16:44:17.891Z,25.40
2018-08-28T16:46:46.463Z,25.40
2018-08-28T16:49:14.989Z,25.30
2018-08-28T16:51:43.660Z,25.20
2018-08-28T16:54:12.393Z,25.20
2018-08-28T16:56:40.905Z,25.20
2018-08-28T16:59:09.418Z,25.20
2018-08-28T17:01:38.002Z,25.20
2018-08-28T17:04:06.458Z,25.30
2018-08-28T17:06:35.038Z,25.30
2018-08-28T17:09:05.140Z,25.30
2018-08-28T17:11:33.693Z,25.20
2018-08-28T17:14:02.284Z,25.20
2018-08-28T17:16:30.862Z,25.20
2018-08-28T17:18:59.398Z,25.10
2018-08-28T17:21:27.955Z,25.10
2018-08-28T17:23:56.483Z,25.20
2018-08-28T17:26:25.077Z,25.20
2018-08-28T17:28:53.609Z,25.00
2018-08-28T17:31:22.174Z,24.80
2018-08-28T17:33:50.696Z,24.60
2018-08-28T17:36:19.259Z,24.40
2018-08-28T17:38:47.803Z,24.30
2018-08-28T17:41:16.302Z,24.20
2018-08-28T17:43:44.847Z,24.00
2018-08-28T17:46:13.399Z,23.90
2018-08-28T17:48:41.940Z,23.80
2018-08-28T17:51:10.506Z,23.70
2018-08-28T17:53:38.985Z,23.60
2018-08-28T17:56:07.508Z,23.50
2018-08-28T17:58:36.032Z,23.50
2018-08-28T18:01:04.659Z,23.40
2018-08-28T18:03:33.164Z,23.40
2018-08-28T18:06:01.689Z,23.40
2018-08-28T18:08:30.216Z,23.40
2018-08-28T18:10:58.737Z,23.40
2018-08-28T18:13:27.250Z,23.40
2018-08-28T18:15:55.773Z,23.40
2018-08-28T18:18:24.317Z,23.30
2018-08-28T18:20:52.823Z,23.20
2018-08-28T18:23:21.279Z,23.20
2018-08-28T18:25:49.778Z,23.10
2018-08-28T18:28:18.266Z,22.90
2018-08-28T18:30:46.729Z,22.80
2018-08-28T18:33:15.256Z,22.60
2018-08-28T18:35:43.804Z,22.60
2018-08-28T18:38:12.276Z,22.50
2018-08-28T18:40:40.790Z,22.40
2018-08-28T18:43:09.316Z,22.30
2018-08-28T18:45:38.233Z,22.30
2018-08-28T18:48:06.404Z,22.20
2018-08-28T18:50:34.885Z,22.10
2018-08-28T18:53:03.376Z,22.10
2018-08-28T18:55:32.161Z,22.00
2018-08-28T18:58:00.639Z,21.90
2018-08-28T19:00:29.148Z,21.80
2018-08-28T19:02:57.700Z,21.70
2018-08-28T19:05:26.160Z,21.60
2018-08-28T19:07:54.687Z,21.50
2018-08-28T19:10:23.204Z,21.40
2018-08-28T19:12:51.723Z,21.50
2018-08-28T19:15:20.235Z,21.50
2018-08-28T19:17:48.726Z,21.70
2018-08-28T19:20:17.199Z,21.70
2018-08-28T19:22:45.724Z,21.70
2018-08-28T19:25:14.231Z,21.70
2018-08-28T19:27:42.750Z,21.70
2018-08-28T19:30:11.309Z,21.70
2018-08-28T19:32:39.852Z,21.80
2018-08-28T19:35:08.364Z,21.80
2018-08-28T19:37:36.901Z,21.70
2018-08-28T19:40:05.506Z,21.60
2018-08-28T19:42:33.997Z,21.40
2018-08-28T19:45:02.527Z,21.40
2018-08-28T19:47:31.096Z,21.30
2018-08-28T19:49:59.653Z,21.20
2018-08-28T19:52:28.111Z,21.10
2018-08-28T19:54:56.618Z,20.90
2018-08-28T19:57:25.170Z,20.90
2018-08-28T19:59:53.698Z,20.80
2018-08-28T20:02:22.268Z,20.80
2018-08-28T20:04:50.753Z,20.80
2018-08-28T20:07:19.281Z,20.70
2018-08-28T20:09:47.800Z,20.60
2018-08-28T20:12:16.394Z,20.50
2018-08-28T20:14:44.964Z,20.40
2018-08-28T20:17:13.525Z,20.40
2018-08-28T20:19:41.967Z,20.40
2018-08-28T20:22:11.723Z,20.50
2018-08-28T20:24:40.599Z,20.40
2018-08-28T20:27:09.327Z,20.30
2018-08-28T20:29:37.898Z,20.20
2018-08-28T20:32:06.619Z,20.20
2018-08-28T20:34:35.045Z,20.20
2018-08-28T20:37:03.628Z,20.10
2018-08-28T20:39:32.139Z,20.10
2018-08-28T20:42:00.714Z,20.20
2018-08-28T20:44:29.128Z,20.10
2018-08-28T20:46:57.645Z,20.10
2018-08-28T20:49:26.138Z,20.00
2018-08-28T20:51:54.675Z,20.00
2018-08-28T20:54:23.192Z,19.80
2018-08-28T20:56:51.677Z,19.80
2018-08-28T20:59:20.181Z,19.70
2018-08-28T21:01:48.680Z,19.70
2018-08-28T21:04:17.151Z,19.60
2018-08-28T21:06:45.635Z,19.60
2018-08-28T21:09:14.144Z,19.60
2018-08-28T21:11:42.654Z,19.60
2018-08-28T21:14:11.132Z,19.60
2018-08-28T21:16:39.642Z,19.60
2018-08-28T21:19:08.138Z,19.50
2018-08-28T21:21:36.664Z,19.30
2018-08-28T21:24:05.256Z,19.30
2018-08-28T21:26:33.740Z,19.20
2018-08-28T21:29:02.317Z,19.20
2018-08-28T21:31:30.716Z,19.30
2018-08-28T21:33:59.195Z,19.20
2018-08-28T21:36:27.674Z,19.20
2018-08-28T21:38:56.167Z,19.10
2018-08-28T21:41:24.676Z,19.10
2018-08-28T21:43:53.166Z,19.10
2018-08-28T21:46:21.673Z,19.10
2018-08-28T21:48:50.167Z,19.00
2018-08-28T21:51:18.663Z,19.00
2018-08-28T21:53:47.138Z,19.00
2018-08-28T21:56:15.657Z,19.00
2018-08-28T21:58:44.158Z,18.90
2018-08-28T22:01:13.077Z,18.90
2018-08-28T22:03:42.649Z,18.90
2018-08-28T22:06:16.576Z,18.80
2018-08-28T22:08:45.270Z,18.80
2018-08-28T22:11:14.073Z,18.70
2018-08-28T22:13:45.854Z,18.70
2018-08-28T22:16:14.331Z,18.70
2018-08-28T22:18:42.860Z,18.70
2018-08-28T22:21:11.361Z,18.60
2018-08-28T22:23:39.858Z,18.60
2018-08-28T22:26:08.362Z,18.60
2018-08-28T22:28:36.865Z,18.50
2018-08-28T22:31:05.375Z,18.50
2018-08-28T22:33:33.850Z,18.50
2018-08-28T22:36:02.358Z,18.40
2018-08-28T22:38:30.836Z,18.40
2018-08-28T22:40:59.328Z,18.30
2018-08-28T22:43:27.808Z,18.20
2018-08-28T22:45:56.300Z,18.20
2018-08-28T22:48:24.765Z,18.30
2018-08-28T22:50:53.255Z,18.30
2018-08-28T22:53:21.768Z,18.30
2018-08-28T22:55:50.268Z,18.30
2018-08-28T22:58:18.756Z,18.30
2018-08-28T23:00:47.266Z,18.30
2018-08-28T23:03:15.768Z,18.30
2018-08-28T23:05:44.254Z,18.20
2018-08-28T23:08:12.752Z,18.20
2018-08-28T23:10:41.235Z,18.20
2018-08-28T23:13:09.716Z,18.20
2018-08-28T23:15:38.187Z,18.10
2018-08-28T23:18:06.734Z,18.00
2018-08-28T23:20:35.230Z,18.00
2018-08-28T23:23:03.744Z,17.90
2018-08-28T23:25:32.247Z,17.80
2018-08-28T23:28:00.734Z,17.80
2018-08-28T23:30:29.222Z,17.80
2018-08-28T23:32:57.711Z,17.80
2018-08-28T23:35:26.178Z,17.80
2018-08-28T23:37:54.672Z,17.90
2018-08-28T23:40:23.172Z,17.90
2018-08-28T23:42:51.645Z,17.80
2018-08-28T23:45:20.139Z,17.70
2018-08-28T23:47:48.692Z,17.70
2018-08-28T23:50:17.190Z,17.70
2018-08-28T23:52:45.660Z,17.70
2018-08-28T23:55:14.174Z,17.80
2018-08-28T23:57:42.664Z,17.90
